< < Back
Terminal Aerodrome Forecast


Current Version              Previous Versions:   1  2  3  4  5  6  7  8  9  

Terminal Aerodrome Forecast

683
FTUS42 KJAX 022320
TAFGNV
TAF
KGNV 022320Z 0300/0324 25009KT P6SM VCSH SCT050 SCT150 BKN250
     FM030200 22005KT P6SM SCT060 BKN250
     FM030900 23004KT 5SM BR BKN010
     FM031400 25010KT P6SM SCT035 BKN050
     FM031800 22012KT P6SM VCTS BKN040CB=

Latest METAR

728
SAUS70 KWBC 030500 RRD
MTRGNV
METAR KGNV 030453Z AUTO 00000KT 10SM BKN060 BKN075 23/19 A2998 RMK AO2
SLP150 T02280194 403220206


USA.gov is the U.S. government's official web portal to all federal, state and local government web resources and services.